Time;durP1;ratioP1;P1;durP2;ratioP2;P2;SDS_P1;SDS_P2;PMS_P1;PMS_P2;Temp;Humidity;BMP_temperature;BMP_pressure;BME280_temperature;BME280_humidity;BME280_pressure;Samples;Min_cycle;Max_cycle;Signal;HPM_P1;HPM_P2
2022/10/02 00:00:34;;;;;;;11.20;2.80;;;11.30;99.90;;;;;;4995433;28;20655;-69
2022/10/02 00:03:15;;;;;;;11.53;2.93;;;11.30;99.90;;;;;;4995788;28;20205;-69
2022/10/02 00:05:48;;;;;;;10.53;3.03;;;11.40;99.90;;;;;;4995831;28;20218;-69
2022/10/02 00:08:22;;;;;;;14.07;2.87;;;11.40;99.90;;;;;;4995822;28;20670;-68
2022/10/02 00:10:55;;;;;;;11.73;3.07;;;11.50;99.90;;;;;;4995570;28;20256;-69
2022/10/02 00:13:28;;;;;;;11.77;3.30;;;11.50;99.90;;;;;;4995743;28;20190;-70
2022/10/02 00:15:58;;;;;;;10.10;2.87;;;11.50;99.90;;;;;;4995562;28;20263;-69
2022/10/02 00:18:31;;;;;;;9.93;2.60;;;11.50;99.90;;;;;;4995612;28;20202;-70
2022/10/02 00:21:04;;;;;;;10.00;2.80;;;11.60;99.90;;;;;;4995469;28;20206;-68
2022/10/02 00:23:37;;;;;;;11.80;3.07;;;11.60;99.90;;;;;;4995416;28;20190;-69
2022/10/02 00:26:12;;;;;;;13.00;2.80;;;11.60;99.90;;;;;;4995462;28;20583;-69
2022/10/02 00:28:50;;;;;;;11.70;3.43;;;11.70;99.90;;;;;;4995456;28;20185;-67
2022/10/02 00:31:33;;;;;;;11.00;2.97;;;11.70;99.90;;;;;;4995348;28;20193;-67
2022/10/02 00:34:19;;;;;;;15.27;3.00;;;11.80;99.90;;;;;;4995293;28;20181;-67
2022/10/02 00:36:59;;;;;;;10.97;2.60;;;11.70;99.90;;;;;;4994326;28;20206;-68
2022/10/02 00:39:40;;;;;;;11.05;3.60;;;11.70;99.90;;;;;;4995335;28;20554;-69
2022/10/02 00:42:42;;;;;;;16.03;3.77;;;11.70;99.90;;;;;;4995112;28;20213;-68
2022/10/02 00:45:38;;;;;;;12.03;3.50;;;11.70;99.90;;;;;;4993248;28;20218;-67
2022/10/02 00:48:20;;;;;;;19.10;4.10;;;11.70;99.90;;;;;;4994602;28;20206;-68
2022/10/02 00:50:59;;;;;;;12.00;3.87;;;11.60;99.90;;;;;;4994429;28;20581;-67
2022/10/02 00:53:38;;;;;;;13.13;3.60;;;11.60;99.90;;;;;;4994995;28;20186;-68
2022/10/02 00:56:15;;;;;;;18.20;4.30;;;11.50;99.90;;;;;;4994812;28;20592;-68
2022/10/02 00:58:59;;;;;;;16.70;4.80;;;11.50;99.90;;;;;;4994166;28;20216;-67
2022/10/02 01:01:36;;;;;;;13.43;4.00;;;11.50;99.90;;;;;;4994781;28;20217;-69
2022/10/02 01:04:09;;;;;;;14.37;4.10;;;11.50;99.90;;;;;;4994154;28;20228;-71
2022/10/02 01:06:39;;;;;;;19.13;4.37;;;11.50;99.90;;;;;;4993740;28;20221;-68
2022/10/02 01:09:08;;;;;;;12.37;3.77;;;11.50;99.90;;;;;;4994609;28;20562;-68
2022/10/02 01:11:38;;;;;;;14.37;4.27;;;11.50;99.90;;;;;;4994549;28;20270;-68
2022/10/02 01:14:07;;;;;;;16.47;4.17;;;11.40;99.90;;;;;;4994301;28;20216;-70
2022/10/02 01:16:35;;;;;;;15.20;3.90;;;11.40;99.90;;;;;;4976974;28;20226;-71
2022/10/02 01:19:05;;;;;;;11.60;3.87;;;11.40;99.90;;;;;;4994433;28;20228;-69
2022/10/02 01:21:42;;;;;;;12.40;4.00;;;11.50;99.90;;;;;;4994410;28;20225;-68
2022/10/02 01:24:19;;;;;;;12.27;4.17;;;11.40;99.90;;;;;;4994380;28;20197;-68
2022/10/02 01:26:49;;;;;;;16.33;4.40;;;11.40;99.90;;;;;;4976627;28;20201;-68
2022/10/02 01:29:18;;;;;;;15.57;3.87;;;11.40;99.90;;;;;;4974508;28;20206;-68
2022/10/02 01:31:47;;;;;;;15.23;4.10;;;11.40;99.90;;;;;;4974146;28;20229;-68
2022/10/02 01:34:16;;;;;;;19.37;4.47;;;11.40;99.90;;;;;;4974469;28;20211;-70
2022/10/02 01:36:45;;;;;;;21.63;4.33;;;11.40;99.90;;;;;;4974733;28;20206;-68
2022/10/02 01:39:13;;;;;;;15.60;4.17;;;11.40;99.90;;;;;;4974837;28;20198;-67
2022/10/02 01:41:44;;;;;;;16.57;4.40;;;11.40;99.90;;;;;;4974608;28;20226;-68
2022/10/02 01:44:16;;;;;;;16.43;4.07;;;11.50;99.90;;;;;;4974457;28;20679;-68
2022/10/02 01:46:56;;;;;;;17.83;4.47;;;11.50;99.90;;;;;;4974711;28;20217;-67
2022/10/02 01:49:39;;;;;;;14.97;4.13;;;11.50;99.90;;;;;;4973865;28;20203;-68
2022/10/02 01:52:20;;;;;;;15.50;4.23;;;11.50;99.90;;;;;;4974558;28;20222;-68
2022/10/02 01:55:06;;;;;;;13.70;4.07;;;11.50;99.90;;;;;;4973689;28;20241;-67
2022/10/02 01:57:53;;;;;;;17.63;4.33;;;11.50;99.90;;;;;;4974169;28;20213;-68
2022/10/02 02:00:24;;;;;;;12.73;3.97;;;11.50;99.90;;;;;;4973618;28;20721;-69
2022/10/02 02:02:59;;;;;;;11.47;4.07;;;11.50;99.90;;;;;;4973168;28;20234;-68
2022/10/02 02:05:43;;;;;;;12.87;4.00;;;11.50;99.90;;;;;;4973743;28;20226;-68
2022/10/02 02:08:18;;;;;;;14.23;4.07;;;11.50;99.90;;;;;;4974083;28;20222;-71
2022/10/02 02:10:55;;;;;;;15.88;3.70;;;11.50;99.90;;;;;;4974282;28;20212;-68
2022/10/02 02:13:28;;;;;;;15.33;4.30;;;11.50;99.90;;;;;;4973571;28;20206;-68
2022/10/02 02:16:05;;;;;;;12.03;3.97;;;11.50;99.90;;;;;;4973542;28;20226;-69
2022/10/02 02:18:39;;;;;;;12.20;3.60;;;11.50;99.90;;;;;;4973874;28;20241;-69
2022/10/02 02:21:18;;;;;;;12.20;3.77;;;11.50;99.90;;;;;;4973124;28;20233;-69
2022/10/02 02:23:51;;;;;;;10.67;3.60;;;11.50;99.90;;;;;;4973198;28;20605;-68
2022/10/02 02:26:23;;;;;;;11.70;3.50;;;11.50;99.90;;;;;;4973672;28;20687;-69
2022/10/02 02:28:54;;;;;;;12.60;3.83;;;11.50;99.90;;;;;;4973735;28;20568;-69
2022/10/02 02:31:30;;;;;;;12.17;3.67;;;11.50;99.90;;;;;;4972932;28;20205;-69
2022/10/02 02:34:02;;;;;;;11.70;3.47;;;11.50;99.90;;;;;;4973683;28;20685;-68
2022/10/02 02:36:36;;;;;;;11.03;3.60;;;11.50;99.90;;;;;;4973880;28;20218;-69
2022/10/02 02:39:09;;;;;;;12.13;3.58;;;11.50;99.90;;;;;;4973234;28;20213;-68
2022/10/02 02:41:41;;;;;;;15.25;3.70;;;11.60;99.90;;;;;;4972980;28;20667;-69
2022/10/02 02:44:18;;;;;;;9.52;3.20;;;11.60;99.90;;;;;;4973434;28;20245;-68
2022/10/02 02:47:03;;;;;;;9.57;3.33;;;11.60;99.90;;;;;;4973825;28;20205;-67
2022/10/02 02:49:39;;;;;;;8.40;3.17;;;11.70;99.90;;;;;;4973075;28;20223;-68
2022/10/02 02:52:13;;;;;;;10.53;2.90;;;11.70;99.90;;;;;;4973499;28;20213;-68
2022/10/02 02:54:46;;;;;;;9.63;3.33;;;11.70;99.90;;;;;;4973224;28;20229;-69
2022/10/02 02:57:17;;;;;;;11.43;3.30;;;11.70;99.90;;;;;;4973230;28;20230;-67
2022/10/02 02:59:50;;;;;;;12.13;3.40;;;11.70;99.90;;;;;;4973513;28;20217;-69
2022/10/02 03:02:20;;;;;;;10.10;2.97;;;11.70;99.90;;;;;;4972546;28;20203;-69
2022/10/02 03:04:48;;;;;;;11.73;2.73;;;11.70;99.90;;;;;;4973195;28;20235;-68
2022/10/02 03:07:17;;;;;;;7.63;2.83;;;11.70;99.90;;;;;;4973252;28;20245;-69
2022/10/02 03:09:56;;;;;;;9.83;3.20;;;11.70;99.90;;;;;;4975449;28;20213;-71
2022/10/02 03:12:39;;;;;;;7.50;2.80;;;11.70;99.90;;;;;;4976704;28;20218;-68
2022/10/02 03:15:22;;;;;;;9.43;2.70;;;11.70;99.90;;;;;;4977092;28;20580;-67
2022/10/02 03:18:08;;;;;;;13.10;2.80;;;11.70;99.90;;;;;;4976936;28;20675;-67
2022/10/02 03:20:42;;;;;;;7.03;2.77;;;11.60;99.90;;;;;;4976489;28;20210;-67
2022/10/02 03:23:17;;;;;;;9.35;2.63;;;11.70;99.90;;;;;;4976847;28;20229;-66
2022/10/02 03:25:53;;;;;;;9.50;3.33;;;11.70;99.90;;;;;;4976417;28;20585;-65
2022/10/02 03:28:28;;;;;;;10.00;2.93;;;11.70;99.90;;;;;;4976688;28;20209;-66
2022/10/02 03:31:19;;;;;;;9.40;2.50;;;11.60;99.90;;;;;;4976928;28;20211;-66
2022/10/02 03:33:52;;;;;;;9.80;2.87;;;11.60;99.90;;;;;;4976904;28;20206;-67
2022/10/02 03:36:23;;;;;;;9.27;2.47;;;11.60;99.90;;;;;;4976334;28;20601;-66
2022/10/02 03:38:54;;;;;;;11.10;2.50;;;11.60;99.90;;;;;;4976715;28;20210;-67
2022/10/02 03:41:42;;;;;;;10.68;2.47;;;11.70;99.90;;;;;;4976541;28;20206;-67
2022/10/02 03:44:11;;;;;;;8.77;2.30;;;11.70;99.90;;;;;;4976908;28;20234;-68
2022/10/02 03:46:40;;;;;;;9.67;2.30;;;11.60;99.90;;;;;;4976007;28;20591;-68
2022/10/02 03:49:10;;;;;;;10.63;2.13;;;11.60;99.90;;;;;;4975961;28;20217;-68
2022/10/02 03:51:39;;;;;;;8.05;2.50;;;11.70;99.90;;;;;;4976792;28;20207;-68
2022/10/02 03:54:15;;;;;;;12.37;2.33;;;11.70;99.90;;;;;;4976144;28;20214;-67
2022/10/02 03:56:52;;;;;;;7.23;2.67;;;11.70;99.90;;;;;;4976057;28;20213;-67
2022/10/02 03:59:31;;;;;;;10.47;2.70;;;11.60;99.90;;;;;;4975954;28;20206;-67
2022/10/02 04:02:03;;;;;;;9.10;2.42;;;11.60;99.90;;;;;;4976402;28;20190;-67
2022/10/02 04:04:42;;;;;;;8.17;2.23;;;11.70;99.90;;;;;;4975882;28;20257;-68
2022/10/02 04:07:17;;;;;;;7.77;2.20;;;11.70;99.90;;;;;;4975674;28;20206;-68
2022/10/02 04:09:51;;;;;;;6.17;2.37;;;11.70;99.90;;;;;;4976449;28;20182;-69
2022/10/02 04:12:25;;;;;;;10.25;2.25;;;11.60;99.90;;;;;;4976227;28;20201;-68
2022/10/02 04:14:57;;;;;;;11.00;2.47;;;11.70;99.90;;;;;;4976177;28;20583;-67
2022/10/02 04:17:33;;;;;;;11.13;2.43;;;11.70;99.90;;;;;;4974681;28;20221;-69
2022/10/02 04:20:12;;;;;;;9.60;2.10;;;11.70;99.90;;;;;;4975542;28;20540;-68
2022/10/02 04:22:45;;;;;;;8.88;2.20;;;11.70;99.90;;;;;;4975775;28;20205;-68
2022/10/02 04:25:17;;;;;;;6.80;2.20;;;11.70;99.90;;;;;;4975964;28;20230;-66
2022/10/02 04:27:54;;;;;;;7.13;2.35;;;11.70;99.90;;;;;;4976074;28;20190;-67
2022/10/02 04:30:24;;;;;;;9.57;2.38;;;11.70;99.90;;;;;;4975344;28;20202;-66
2022/10/02 04:32:56;;;;;;;6.70;2.30;;;11.70;99.90;;;;;;4975873;28;20199;-66
2022/10/02 04:35:33;;;;;;;9.45;2.50;;;11.70;99.90;;;;;;4975819;28;20218;-66
2022/10/02 04:38:21;;;;;;;11.20;2.60;;;11.70;99.90;;;;;;4976066;28;20210;-67
2022/10/02 04:41:03;;;;;;;9.57;2.60;;;11.70;99.90;;;;;;4975285;28;20208;-69
2022/10/02 04:43:46;;;;;;;10.17;2.40;;;11.70;99.90;;;;;;4975674;28;20184;-67
2022/10/02 04:46:33;;;;;;;9.68;2.53;;;11.70;99.90;;;;;;4975668;28;20233;-67
2022/10/02 04:49:18;;;;;;;11.57;3.00;;;11.70;99.90;;;;;;4974874;28;20198;-67
2022/10/02 04:52:29;;;;;;;11.63;2.90;;;11.70;99.90;;;;;;4975605;28;20201;-68
2022/10/02 04:55:17;;;;;;;5.13;2.63;;;11.70;99.90;;;;;;4975237;28;20226;-69
2022/10/02 04:57:59;;;;;;;10.57;3.03;;;11.70;99.90;;;;;;4975602;28;20183;-68
2022/10/02 05:00:36;;;;;;;11.27;2.72;;;11.70;99.90;;;;;;4975413;28;20347;-68
2022/10/02 05:03:27;;;;;;;10.50;2.75;;;11.70;99.90;;;;;;4975413;28;20184;-67
2022/10/02 05:06:21;;;;;;;11.48;2.50;;;11.70;99.90;;;;;;4975194;28;20731;-69
2022/10/02 05:09:01;;;;;;;8.25;2.53;;;11.70;99.90;;;;;;4975208;28;20187;-68
2022/10/02 05:11:53;;;;;;;11.35;2.83;;;11.70;99.90;;;;;;4975194;28;20187;-67
2022/10/02 05:14:53;;;;;;;9.63;2.70;;;11.70;99.90;;;;;;4975105;28;20218;-67
2022/10/02 05:17:40;;;;;;;10.65;2.88;;;11.70;99.90;;;;;;4975259;28;20636;-69
2022/10/02 05:20:24;;;;;;;9.15;2.17;;;11.70;99.90;;;;;;4975064;28;20187;-67
2022/10/02 05:23:04;;;;;;;9.63;2.63;;;11.70;99.90;;;;;;4974923;28;20187;-68
2022/10/02 05:25:55;;;;;;;11.15;2.92;;;11.70;99.90;;;;;;4975042;28;20728;-67
2022/10/02 05:28:39;;;;;;;9.10;2.60;;;11.70;99.90;;;;;;4974991;28;20193;-67
2022/10/02 05:31:20;;;;;;;9.80;2.80;;;11.70;99.90;;;;;;4974537;28;20194;-67
2022/10/02 05:34:05;;;;;;;14.30;3.38;;;11.70;99.90;;;;;;4974831;28;20191;-66
2022/10/02 05:36:56;;;;;;;12.60;3.03;;;11.70;99.90;;;;;;4974710;28;20221;-67
2022/10/02 05:39:31;;;;;;;9.55;3.00;;;11.80;99.90;;;;;;4957471;28;20567;-67
2022/10/02 05:42:08;;;;;;;9.07;3.40;;;11.80;99.90;;;;;;4974652;28;20190;-67
2022/10/02 05:44:40;;;;;;;13.70;3.20;;;11.80;99.90;;;;;;4974678;28;20246;-67
2022/10/02 05:47:14;;;;;;;15.55;3.30;;;11.80;99.90;;;;;;4974382;28;20682;-67
2022/10/02 05:49:50;;;;;;;12.27;3.22;;;11.80;99.90;;;;;;4974549;28;20193;-68
2022/10/02 05:52:23;;;;;;;9.73;3.20;;;11.80;99.90;;;;;;4974295;28;20206;-68
2022/10/02 05:54:57;;;;;;;14.13;3.30;;;11.80;99.90;;;;;;4974387;28;20221;-68
2022/10/02 05:57:33;;;;;;;11.02;2.80;;;11.80;99.90;;;;;;4974378;28;20193;-70
2022/10/02 06:00:27;;;;;;;10.57;3.30;;;11.90;99.90;;;;;;4974368;28;20198;-67
2022/10/02 06:03:07;;;;;;;11.27;3.17;;;11.90;99.90;;;;;;4974300;28;20667;-66
2022/10/02 06:05:44;;;;;;;14.82;3.30;;;12.00;99.90;;;;;;4972854;28;20243;-67
2022/10/02 06:08:17;;;;;;;13.00;3.08;;;11.90;99.90;;;;;;4974257;28;20201;-67
2022/10/02 06:10:50;;;;;;;13.00;3.50;;;11.90;99.90;;;;;;4974271;28;20195;-67
2022/10/02 06:13:24;;;;;;;15.47;3.60;;;11.90;99.90;;;;;;4974141;28;20186;-68
2022/10/02 06:16:00;;;;;;;10.10;2.88;;;11.90;99.90;;;;;;4974015;28;20218;-67
2022/10/02 06:18:32;;;;;;;11.48;3.08;;;11.90;99.90;;;;;;4973941;28;20693;-69
2022/10/02 06:21:05;;;;;;;13.00;3.28;;;11.90;99.90;;;;;;4973950;28;20187;-68
2022/10/02 06:23:37;;;;;;;13.23;3.58;;;12.00;99.90;;;;;;4973867;28;20209;-69
2022/10/02 06:26:10;;;;;;;11.20;3.45;;;12.00;99.90;;;;;;4973452;28;20238;-68
2022/10/02 06:28:48;;;;;;;9.25;3.47;;;12.00;99.90;;;;;;4973839;28;20197;-67
2022/10/02 06:31:22;;;;;;;12.55;3.38;;;12.00;99.90;;;;;;4973927;28;20735;-66
2022/10/02 06:33:52;;;;;;;10.45;2.90;;;12.00;99.90;;;;;;4973758;28;20210;-67
2022/10/02 06:36:45;;;;;;;9.20;2.75;;;12.00;99.90;;;;;;4973588;28;20221;-68
2022/10/02 06:39:31;;;;;;;13.63;3.03;;;12.00;99.90;;;;;;4973986;28;20218;-68
2022/10/02 06:42:11;;;;;;;12.65;3.25;;;12.00;99.90;;;;;;4973693;28;20190;-68
2022/10/02 06:44:52;;;;;;;8.13;3.08;;;12.00;99.90;;;;;;4973567;28;20213;-68
2022/10/02 06:47:37;;;;;;;10.88;2.88;;;12.00;99.90;;;;;;4973606;28;20550;-69
2022/10/02 06:50:26;;;;;;;9.40;3.20;;;12.00;99.90;;;;;;4973648;28;20202;-69
2022/10/02 06:53:02;;;;;;;11.50;2.95;;;12.10;99.90;;;;;;4973189;28;20206;-67
2022/10/02 06:55:45;;;;;;;9.93;2.58;;;12.10;99.90;;;;;;4973405;28;20569;-66
2022/10/02 06:58:39;;;;;;;6.10;2.67;;;12.10;99.90;;;;;;4972303;28;20213;-67
2022/10/02 07:01:22;;;;;;;12.48;2.53;;;12.10;99.90;;;;;;4973455;28;20202;-66
2022/10/02 07:04:07;;;;;;;7.55;2.65;;;12.10;99.90;;;;;;4973480;28;20556;-67
2022/10/02 07:06:46;;;;;;;9.30;2.80;;;12.00;99.90;;;;;;4973247;28;20238;-59
2022/10/02 07:09:39;;;;;;;8.75;2.92;;;12.10;99.90;;;;;;4973281;28;20186;-57
2022/10/02 07:12:19;;;;;;;12.77;2.72;;;12.20;99.90;;;;;;4964914;28;20209;-67
2022/10/02 07:15:02;;;;;;;10.20;2.20;;;12.20;99.90;;;;;;4973406;28;20230;-67
2022/10/02 07:17:42;;;;;;;10.32;2.50;;;12.20;99.90;;;;;;4973287;28;20194;-67
2022/10/02 07:20:31;;;;;;;6.82;2.22;;;12.20;99.90;;;;;;4973490;28;20201;-68
2022/10/02 07:23:34;;;;;;;9.25;2.25;;;12.10;99.90;;;;;;4973141;28;20210;-67
2022/10/02 07:26:22;;;;;;;6.65;2.45;;;12.10;99.90;;;;;;4973249;28;20229;-68
2022/10/02 07:29:01;;;;;;;8.65;2.42;;;12.10;99.90;;;;;;4972166;28;20218;-67
2022/10/02 07:31:40;;;;;;;9.23;2.70;;;12.10;99.90;;;;;;4973595;28;20193;-67
2022/10/02 07:34:23;;;;;;;9.90;2.58;;;12.10;99.90;;;;;;4973246;28;20500;-70
2022/10/02 07:37:04;;;;;;;6.25;2.45;;;12.00;99.90;;;;;;4973136;28;20190;-67
2022/10/02 07:39:45;;;;;;;9.50;2.33;;;12.00;99.90;;;;;;4973212;28;20187;-69
2022/10/02 07:42:37;;;;;;;7.97;2.20;;;12.00;99.90;;;;;;4973263;28;20195;-67
2022/10/02 07:45:28;;;;;;;10.63;2.33;;;12.00;99.90;;;;;;4962007;28;20233;-68
2022/10/02 07:48:28;;;;;;;7.23;2.50;;;12.00;99.90;;;;;;4951248;28;20211;-67
2022/10/02 07:51:45;;;;;;;4.95;2.17;;;12.00;99.90;;;;;;4973093;28;20195;-67
2022/10/02 07:54:08;;;;;;;8.57;2.35;;;11.90;99.90;;;;;;4972946;28;20199;-67
2022/10/02 07:56:38;;;;;;;7.47;2.58;;;12.00;99.90;;;;;;4976267;28;20214;-66
2022/10/02 07:59:12;;;;;;;5.32;1.92;;;12.00;99.90;;;;;;4976576;28;20542;-66
2022/10/02 08:01:42;;;;;;;8.82;2.50;;;11.90;99.90;;;;;;4976528;28;20250;-66
2022/10/02 08:04:17;;;;;;;6.85;2.40;;;11.90;99.90;;;;;;4976449;28;20194;-66
2022/10/02 08:06:51;;;;;;;10.90;2.28;;;11.90;99.90;;;;;;4976395;28;20216;-65
2022/10/02 08:09:23;;;;;;;11.33;2.63;;;11.90;99.90;;;;;;4976365;28;20183;-67
2022/10/02 08:11:56;;;;;;;10.02;2.42;;;11.90;99.90;;;;;;4976330;28;20198;-66
2022/10/02 08:14:30;;;;;;;8.65;2.28;;;11.90;99.90;;;;;;4976273;28;20197;-66
2022/10/02 08:17:09;;;;;;;7.03;3.08;;;11.90;99.90;;;;;;4976215;28;20193;-65
2022/10/02 08:19:45;;;;;;;6.13;2.80;;;11.90;99.90;;;;;;4976334;28;20194;-66
2022/10/02 08:22:24;;;;;;;7.40;3.35;;;11.90;99.90;;;;;;4976375;28;20643;-66
2022/10/02 08:24:57;;;;;;;12.02;2.95;;;11.90;99.90;;;;;;4975951;28;20225;-65
2022/10/02 08:27:44;;;;;;;9.07;2.70;;;11.90;99.90;;;;;;4976203;28;20206;-66
2022/10/02 08:30:14;;;;;;;6.70;2.80;;;11.90;99.90;;;;;;4976051;28;20190;-65
2022/10/02 08:32:46;;;;;;;9.38;2.97;;;11.90;99.90;;;;;;4975705;28;20206;-65
2022/10/02 08:35:18;;;;;;;14.83;3.10;;;11.90;99.90;;;;;;4975917;28;20225;-66
2022/10/02 08:38:08;;;;;;;7.68;2.28;;;11.90;99.90;;;;;;4976056;28;20240;-67
2022/10/02 08:41:15;;;;;;;11.73;2.53;;;11.80;99.90;;;;;;4975859;28;20655;-67
2022/10/02 08:44:26;;;;;;;9.23;2.45;;;11.90;99.90;;;;;;4958304;28;20206;-66
2022/10/02 08:47:20;;;;;;;14.13;2.88;;;11.80;99.90;;;;;;4975633;28;20229;-66
2022/10/02 08:50:28;;;;;;;7.35;2.33;;;11.70;99.90;;;;;;4975783;28;20214;-66
2022/10/02 08:53:30;;;;;;;7.72;2.05;;;11.70;99.90;;;;;;4975584;28;20207;-66
2022/10/02 08:56:14;;;;;;;14.90;2.70;;;11.70;99.90;;;;;;4972701;28;20226;-66
2022/10/02 08:59:17;;;;;;;10.57;2.47;;;11.70;99.90;;;;;;4975507;28;20187;-66
2022/10/02 09:02:18;;;;;;;10.35;2.50;;;11.70;99.90;;;;;;4974952;28;20210;-65
2022/10/02 09:05:24;;;;;;;14.27;2.53;;;11.70;99.90;;;;;;4958152;28;20206;-67
2022/10/02 09:08:38;;;;;;;10.13;2.42;;;11.70;99.90;;;;;;4974237;28;20222;-67
2022/10/02 09:11:44;;;;;;;10.65;2.50;;;11.70;99.90;;;;;;4975272;28;20666;-67
2022/10/02 09:14:44;;;;;;;10.27;2.70;;;11.80;99.90;;;;;;4975087;28;20680;-66
2022/10/02 09:17:47;;;;;;;10.23;3.38;;;11.70;99.90;;;;;;4975073;28;20198;-66
2022/10/02 09:20:41;;;;;;;6.83;2.70;;;11.80;99.90;;;;;;4962270;28;20667;-65
2022/10/02 09:24:01;;;;;;;13.30;3.58;;;11.70;99.90;;;;;;4974855;28;20199;-66
2022/10/02 09:27:03;;;;;;;10.57;3.50;;;11.80;99.90;;;;;;4974813;28;20221;-66
2022/10/02 09:30:12;;;;;;;12.32;3.70;;;11.80;99.90;;;;;;4943208;28;20205;-65
2022/10/02 09:33:19;;;;;;;12.38;3.90;;;11.90;99.90;;;;;;4974923;28;20194;-66
2022/10/02 09:36:25;;;;;;;10.48;3.60;;;12.00;99.90;;;;;;4974786;28;20688;-65
2022/10/02 09:39:38;;;;;;;11.10;3.17;;;12.00;99.90;;;;;;4974719;28;20588;-66
2022/10/02 09:42:46;;;;;;;14.07;7.88;;;12.00;99.90;;;;;;4929593;28;20261;-66
2022/10/02 09:45:57;;;;;;;17.23;6.90;;;12.00;99.90;;;;;;4896167;29;20292;-67
2022/10/02 09:49:05;;;;;;;12.77;4.25;;;12.00;99.90;;;;;;4973031;28;20358;-66
2022/10/02 09:52:19;;;;;;;22.05;12.13;;;12.10;99.90;;;;;;4974619;28;20205;-66
2022/10/02 09:55:28;;;;;;;10.68;3.67;;;12.10;99.90;;;;;;4974405;28;20222;-66
2022/10/02 09:58:34;;;;;;;12.20;3.45;;;12.10;99.90;;;;;;4942513;28;20229;-66
2022/10/02 10:01:34;;;;;;;7.15;3.58;;;12.10;99.90;;;;;;4974392;28;20201;-66
2022/10/02 10:04:53;;;;;;;7.90;2.90;;;12.20;99.90;;;;;;4974522;28;20202;-65
2022/10/02 10:07:59;;;;;;;11.10;4.18;;;12.20;99.90;;;;;;4935482;28;20244;-66
2022/10/02 10:10:59;;;;;;;8.35;2.75;;;12.30;99.90;;;;;;4974200;28;20191;-65
2022/10/02 10:14:13;;;;;;;11.32;3.30;;;12.30;99.90;;;;;;4974200;28;20191;-67
2022/10/02 10:17:07;;;;;;;9.73;3.40;;;12.30;99.90;;;;;;4974281;28;20189;-66
2022/10/02 10:20:06;;;;;;;8.75;3.15;;;12.30;99.90;;;;;;4938328;28;20557;-66
2022/10/02 10:23:06;;;;;;;5.97;2.83;;;12.40;99.90;;;;;;4974018;28;20195;-68
2022/10/02 10:26:08;;;;;;;7.70;2.30;;;12.30;99.90;;;;;;4968144;28;20715;-66
2022/10/02 10:29:10;;;;;;;9.63;3.78;;;12.30;99.90;;;;;;4925032;28;20235;-67
2022/10/02 10:32:11;;;;;;;9.60;3.95;;;12.30;99.90;;;;;;4973352;28;20214;-66
2022/10/02 10:35:21;;;;;;;15.50;3.67;;;12.20;99.90;;;;;;4973807;28;20215;-68
2022/10/02 10:38:32;;;;;;;7.15;2.88;;;12.20;99.90;;;;;;4928574;28;20209;-67
2022/10/02 10:41:24;;;;;;;10.32;3.20;;;12.20;99.90;;;;;;4958194;28;20213;-68
2022/10/02 10:44:24;;;;;;;6.68;3.15;;;12.20;99.90;;;;;;4964321;28;20202;-66
2022/10/02 10:47:24;;;;;;;9.18;2.95;;;12.20;99.90;;;;;;4973653;28;20220;-67
2022/10/02 10:50:24;;;;;;;9.52;2.60;;;12.20;99.90;;;;;;4968262;28;20222;-66
2022/10/02 10:53:13;;;;;;;11.77;2.75;;;12.20;99.90;;;;;;4968533;28;20199;-66
2022/10/02 10:56:02;;;;;;;12.48;3.22;;;12.20;99.90;;;;;;4973636;28;20597;-66
2022/10/02 10:58:51;;;;;;;9.98;2.80;;;12.20;99.90;;;;;;4973554;28;20191;-67
2022/10/02 11:01:23;;;;;;;8.90;2.90;;;12.10;99.90;;;;;;4973557;28;20202;-67
2022/10/02 11:04:25;;;;;;;5.45;3.65;;;12.20;99.90;;;;;;4973496;28;20187;-67
2022/10/02 11:07:18;;;;;;;11.98;4.53;;;12.20;99.90;;;;;;4950869;28;20584;-68
2022/10/02 11:10:15;;;;;;;9.35;3.72;;;12.30;99.90;;;;;;4973334;28;20222;-66
2022/10/02 11:13:14;;;;;;;17.10;6.97;;;12.30;99.90;;;;;;4973416;28;20237;-67
2022/10/02 11:16:20;;;;;;;7.55;3.78;;;12.30;99.90;;;;;;4973284;28;20215;-65
2022/10/02 11:19:29;;;;;;;16.10;7.25;;;12.30;99.90;;;;;;4973484;28;20206;-67
2022/10/02 11:22:13;;;;;;;17.00;6.78;;;12.30;99.90;;;;;;4973550;28;20194;-66
2022/10/02 11:25:19;;;;;;;10.80;4.75;;;12.30;99.90;;;;;;4973207;28;20233;-68
2022/10/02 11:28:21;;;;;;;7.75;4.70;;;12.30;99.90;;;;;;4973358;28;20561;-68
2022/10/02 11:31:01;;;;;;;8.27;4.13;;;12.30;99.90;;;;;;4943897;28;20666;-68
2022/10/02 11:33:49;;;;;;;6.18;3.28;;;12.40;99.90;;;;;;4977050;28;20678;-68
2022/10/02 11:36:47;;;;;;;9.38;2.90;;;12.40;99.90;;;;;;4959776;28;20222;-69
2022/10/02 11:39:48;;;;;;;5.68;2.22;;;12.40;99.90;;;;;;4976948;28;20209;-67
2022/10/02 11:42:34;;;;;;;4.55;2.15;;;12.40;99.90;;;;;;4964592;28;20229;-67
2022/10/02 11:45:18;;;;;;;3.35;1.83;;;12.30;99.90;;;;;;4976804;28;20214;-67
2022/10/02 11:48:18;;;;;;;4.55;2.65;;;12.30;99.90;;;;;;4976915;28;20195;-67
2022/10/02 11:51:11;;;;;;;4.97;2.40;;;12.30;99.90;;;;;;4972298;28;20229;-68
2022/10/02 11:53:58;;;;;;;6.60;2.55;;;12.30;99.90;;;;;;4976685;28;20558;-66
2022/10/02 11:57:00;;;;;;;9.10;2.15;;;12.20;99.90;;;;;;4976638;28;20218;-66
2022/10/02 11:59:48;;;;;;;6.18;2.80;;;12.20;99.90;;;;;;4976606;28;20187;-66
2022/10/02 12:02:24;;;;;;;8.85;3.60;;;12.20;99.90;;;;;;4976644;28;20194;-67
2022/10/02 12:05:07;;;;;;;11.10;4.22;;;12.20;99.90;;;;;;4976280;28;20233;-67
2022/10/02 12:07:43;;;;;;;8.70;4.45;;;12.20;99.90;;;;;;4976542;28;20191;-67
2022/10/02 12:10:27;;;;;;;7.78;4.63;;;12.20;99.90;;;;;;4976402;28;20242;-67
2022/10/02 12:13:14;;;;;;;7.18;2.83;;;12.20;99.90;;;;;;4976389;28;20187;-67
2022/10/02 12:15:51;;;;;;;2.40;1.90;;;12.20;99.90;;;;;;4976231;28;20221;-69
2022/10/02 12:18:28;;;;;;;7.25;2.00;;;12.20;99.90;;;;;;4976332;28;20210;-67
2022/10/02 12:27:13;;;;;;;6.75;3.72;;;12.10;99.90;;;;;;4976105;28;20644;-68
2022/10/02 12:30:02;;;;;;;16.40;11.00;;;12.10;99.90;;;;;;4976000;28;20221;-68
2022/10/02 12:33:08;;;;;;;8.35;4.22;;;12.20;99.90;;;;;;4976097;28;20198;-69
2022/10/02 12:35:49;;;;;;;3.53;2.90;;;12.20;99.90;;;;;;4897670;29;20228;-68
2022/10/02 12:38:46;;;;;;;8.13;5.10;;;12.20;99.90;;;;;;4969203;28;20202;-68
2022/10/02 12:41:34;;;;;;;6.63;4.97;;;12.20;99.90;;;;;;4975764;28;20191;-68
2022/10/02 12:44:30;;;;;;;10.77;5.53;;;12.30;99.90;;;;;;4975628;28;20498;-67
2022/10/02 12:47:18;;;;;;;4.53;1.40;;;12.30;99.90;;;;;;4974537;28;20203;-68
2022/10/02 12:50:01;;;;;;;3.83;2.13;;;12.30;99.90;;;;;;4975659;28;20233;-67
2022/10/02 12:52:58;;;;;;;3.83;2.00;;;12.30;99.90;;;;;;4975682;28;20213;-69
2022/10/02 12:56:03;;;;;;;6.55;2.78;;;12.20;99.90;;;;;;4974376;28;20222;-68
2022/10/02 12:58:43;;;;;;;11.25;3.28;;;12.20;99.90;;;;;;4975527;28;20191;-68
2022/10/02 13:01:45;;;;;;;5.20;1.90;;;12.20;99.90;;;;;;4975470;28;20554;-70
2022/10/02 13:04:51;;;;;;;3.97;1.70;;;12.20;99.90;;;;;;4971919;28;20208;-68
2022/10/02 13:08:08;;;;;;;7.63;2.53;;;12.20;99.90;;;;;;4975398;28;20210;-68
2022/10/02 13:10:44;;;;;;;5.55;2.10;;;12.10;99.90;;;;;;4974779;28;20245;-69
2022/10/02 13:13:34;;;;;;;5.18;3.80;;;12.10;99.90;;;;;;4975221;28;20186;-69
2022/10/02 13:16:11;;;;;;;4.07;3.13;;;12.10;99.90;;;;;;4975145;28;20584;-69
2022/10/02 13:18:57;;;;;;;7.30;4.13;;;12.10;99.90;;;;;;4975194;28;20197;-69
2022/10/02 13:21:45;;;;;;;10.80;4.43;;;12.10;99.90;;;;;;4975195;28;20188;-68
2022/10/02 13:24:32;;;;;;;5.70;3.95;;;12.10;99.90;;;;;;4974869;28;20695;-69
2022/10/02 13:27:15;;;;;;;8.55;5.18;;;12.10;99.90;;;;;;4974947;28;20202;-68
2022/10/02 13:30:00;;;;;;;8.63;5.25;;;12.10;99.90;;;;;;4974900;28;20218;-68
2022/10/02 13:32:53;;;;;;;5.78;3.25;;;12.10;99.90;;;;;;4975276;28;20283;-68
2022/10/02 13:35:38;;;;;;;5.70;4.53;;;12.10;99.90;;;;;;4942967;28;20227;-68
2022/10/02 13:38:30;;;;;;;2.78;1.85;;;12.10;99.90;;;;;;4973693;28;20198;-69
2022/10/02 13:41:08;;;;;;;8.65;4.38;;;12.10;99.90;;;;;;4974847;28;20195;-68
2022/10/02 13:43:56;;;;;;;7.93;3.00;;;12.10;99.90;;;;;;4974879;28;20189;-68
2022/10/02 13:46:38;;;;;;;2.72;1.35;;;12.10;99.90;;;;;;4974618;28;20221;-67
2022/10/02 13:49:17;;;;;;;5.30;2.58;;;12.10;99.90;;;;;;4974598;28;20190;-68
2022/10/02 13:51:56;;;;;;;5.20;1.33;;;12.10;99.90;;;;;;4974650;28;20559;-68
2022/10/02 13:54:48;;;;;;;5.45;2.80;;;12.10;99.90;;;;;;4973972;28;20191;-69
2022/10/02 13:57:38;;;;;;;4.18;2.58;;;12.10;99.90;;;;;;4974100;28;20206;-68
2022/10/02 14:00:13;;;;;;;2.45;1.48;;;12.10;99.90;;;;;;4974476;28;20201;-69
2022/10/02 14:03:03;;;;;;;1.98;1.70;;;12.10;99.90;;;;;;4973380;28;20217;-68
2022/10/02 14:05:40;;;;;;;1.80;1.52;;;12.10;99.90;;;;;;4973345;28;20576;-69
2022/10/02 14:08:37;;;;;;;4.22;2.10;;;12.10;99.90;;;;;;4974289;28;20186;-68
2022/10/02 14:11:18;;;;;;;3.53;1.48;;;12.10;99.90;;;;;;4974222;28;20580;-67
2022/10/02 14:13:59;;;;;;;1.90;1.50;;;12.10;99.90;;;;;;4973946;28;20206;-70